EW8400 Weather Reports


Display with metric or nautical units.
time (UTC)temp
F
wind
direction
speed
MPH
gust
MPH
rain 1hr
in
rain 24hr
in
rain mn
in
humidity
%
barometer
mb
20191023154615 59 69 1.0 6.0 0.00 0.01 0.01 83 1012.1
20191023153036 59 86 1.0 5.0 0.00 0.01 0.01 83 1011.9
20191023150114 59 101 1.0 5.0 0.00 0.01 0.01 83 1012.1
20191023143123 60 92 3.0 9.0 0.00 0.01 0.01 82 1012.7
20191023141521 60 61 5.0 10.0 0.00 0.01 0.01 82 1012.7
20191023134539 60 61 4.0 8.0 0.00 0.01 0.01 82 1013.4
20191023131622 60 49 3.0 7.0 0.00 0.01 0.01 82 1014.1
20191023130002 59 44 4.0 8.0 0.00 0.01 0.01 82 1014.0
20191023124639 59 70 4.0 8.0 0.00 0.01 0.01 82 1013.9
20191023123054 59 76 3.0 8.0 0.00 0.01 0.01 83 1014.2
20191023120108 57 92 4.0 8.0 0.00 0.01 0.01 83 1014.7
20191023114508 57 95 3.0 7.0 0.00 0.01 0.01 83 1014.9
20191023113136 56 90 3.0 8.0 0.00 0.01 0.01 83 1015.1
20191023111510 56 63 3.0 6.0 0.00 0.01 0.01 84 1015.3
20191023104639 55 67 5.0 10.0 0.00 0.01 0.01 84 1015.6
20191023101614 53 60 2.0 10.0 0.00 0.01 0.01 85 1016.5
20191023100059 53 109 1.0 6.0 0.00 0.01 0.01 85 1016.7
20191023094712 52 79 2.0 6.0 0.00 0.01 0.01 85 1016.9
20191023091621 51 62 3.0 6.0 0.00 0.01 0.01 87 1017.5
20191023084543 51 108 1.0 4.0 0.00 0.01 0.01 87 1018.2
20191023083007 50 71 0.0 4.0 0.00 0.01 0.01 87 1018.3
20191023081703 50 70 0.0 3.0 0.00 0.01 0.01 88 1018.1
20191023080046 50 64 0.0 2.0 0.00 0.01 0.01 88 1018.5
20191023073104 50 78 2.0 4.0 0.01 0.01 0.01 87 1018.5
20191023070229 49 63 0.0 3.0 0.01 0.01 0.01 87 1018.8
20191023064552 49 61 0.0 3.0 0.00 0.00 0.00 87 1019.0
20191023061749 49 69 1.0 3.0 0.00 0.00 0.00 87 1019.0
20191023060100 49 67 1.0 4.0 0.00 0.00 0.00 87 1019.0
20191023054512 49 80 0.0 4.0 0.00 0.00 0.00 87 1019.1
20191023053152 49 80 2.0 4.0 0.00 0.00 0.00 87 1019.1
20191023051553 49 61 0.0 3.0 0.00 0.00 0.00 87 1019.2
20191023044612 49 61 0.0 2.0 0.00 0.00 0.00 87 1019.3
20191023043026 49 61 0.0 0.0 0.00 0.00 0.00 87 1019.6
20191023040122 49 59 0.0 3.0 0.00 0.00 0.00 87 1019.6
20191023034632 48 213 0.0 0.0 0.00 0.00 0.00 87 1019.9
20191023031646 48 213 0.0 0.0 0.00 0.00 0.00 87 1020.4
20191023030056 48 213 0.0 0.0 0.00 0.00 0.00 86 1020.6
20191023024712 47 213 0.0 0.0 0.00 0.00 0.00 86 1020.6
20191023023119 47 213 0.0 0.0 0.00 0.00 0.00 86 1020.7
20191023020203 48 213 0.0 0.0 0.00 0.00 0.00 86 1020.7
20191023014529 48 213 0.0 0.0 0.00 0.00 0.00 86 1020.8
20191023011613 48 213 0.0 0.0 0.00 0.00 0.00 86 1021.2
20191023004639 48 213 0.0 0.0 0.00 0.00 0.00 86 1021.5
20191023003101 48 213 0.0 0.0 0.00 0.00 0.00 86 1021.6
20191023001545 48 213 0.0 0.0 0.00 0.00 0.00 86 1021.7
20191022234709 48 213 0.0 0.0 0.00 0.00 0.00 86 1021.8
20191022233126 48 213 0.0 0.0 0.00 0.00 0.00 86 1022.0
20191022230040 48 213 0.0 0.0 0.00 0.00 0.00 86 1022.4
20191022223207 48 213 0.0 0.0 0.00 0.00 0.00 86 1022.7
20191022221512 48 213 0.0 0.0 0.00 0.00 0.00 86 1022.7
20191022220210 49 213 0.0 0.0 0.00 0.00 0.00 86 1022.5
20191022214724 49 213 0.0 0.0 0.00 0.00 0.00 85 1022.6
20191022213011 50 213 0.0 0.0 0.00 0.00 0.00 85 1022.5
20191022210140 51 213 0.0 0.0 0.00 0.00 0.00 85 1022.6
20191022204547 51 213 0.0 0.0 0.00 0.00 0.00 85 1022.6
20191022201638 51 213 0.0 0.0 0.00 0.00 0.00 86 1022.6
20191022200008 51 213 0.0 0.0 0.00 0.00 0.00 86 1022.7
20191022193122 52 213 0.0 1.0 0.00 0.00 0.00 86 1022.8
20191022191509 52 213 0.0 0.0 0.00 0.00 0.00 86 1022.9
20191022184631 52 213 0.0 0.0 0.00 0.00 0.00 86 1022.8
20191022181625 52 213 0.0 0.0 0.00 0.00 0.00 86 1022.9
20191022180039 53 213 0.0 1.0 0.00 0.00 0.00 86 1023.0
20191022173247 53 213 0.0 0.0 0.00 0.00 0.00 86 1022.9
20191022171553 54 213 0.0 0.0 0.00 0.00 0.00 86 1022.8
20191022164712 55 213 0.0 0.0 0.00 0.00 0.00 86 1022.6
20191022163034 56 213 0.0 0.0 0.00 0.00 0.00 86 1022.7